createdAt,value
2022-11-28T00:01:25.211Z,21.30
2022-11-28T00:03:52.661Z,19.33
2022-11-28T00:06:20.547Z,21.48
2022-11-28T00:08:47.885Z,23.85
2022-11-28T00:11:16.871Z,20.85
2022-11-28T00:13:45.599Z,22.35
2022-11-28T00:16:20.525Z,20.15
2022-11-28T00:18:52.314Z,19.27
2022-11-28T00:21:20.453Z,18.90
2022-11-28T00:23:48.545Z,22.77
2022-11-28T00:26:27.898Z,17.40
2022-11-28T00:28:56.060Z,15.75
2022-11-28T00:31:26.297Z,15.32
2022-11-28T00:33:54.158Z,16.33
2022-11-28T00:36:22.098Z,15.70
2022-11-28T00:38:50.110Z,16.00
2022-11-28T00:41:28.792Z,18.15
2022-11-28T00:43:56.079Z,13.48
2022-11-28T00:46:24.401Z,14.38
2022-11-28T00:48:51.888Z,16.13
2022-11-28T00:51:27.777Z,13.45
2022-11-28T00:53:58.020Z,17.25
2022-11-28T00:56:28.730Z,13.55
2022-11-28T00:58:56.256Z,18.08
2022-11-28T01:01:34.005Z,14.70
2022-11-28T01:04:03.833Z,14.63
2022-11-28T01:06:40.252Z,12.77
2022-11-28T01:09:27.132Z,13.45
2022-11-28T01:11:55.205Z,14.15
2022-11-28T01:14:24.045Z,13.85
2022-11-28T01:16:51.298Z,11.82
2022-11-28T01:19:18.456Z,14.20
2022-11-28T01:21:45.675Z,13.63
2022-11-28T01:24:13.170Z,16.08
2022-11-28T01:26:40.663Z,14.35
2022-11-28T01:29:08.452Z,13.23
2022-11-28T01:31:35.801Z,14.32
2022-11-28T01:34:03.017Z,13.43
2022-11-28T01:36:30.109Z,15.27
2022-11-28T01:38:57.146Z,16.63
2022-11-28T01:41:26.603Z,13.07
2022-11-28T01:44:12.370Z,12.50
2022-11-28T01:46:39.628Z,13.65
2022-11-28T01:49:22.533Z,14.02
2022-11-28T01:51:54.639Z,13.68
2022-11-28T01:54:23.956Z,13.18
2022-11-28T01:57:01.723Z,12.10
2022-11-28T01:59:33.604Z,14.23
2022-11-28T02:02:00.897Z,13.95
2022-11-28T02:04:28.496Z,13.43
2022-11-28T02:06:55.976Z,12.13
2022-11-28T02:09:22.995Z,14.05
2022-11-28T02:12:28.352Z,13.45
2022-11-28T02:14:55.284Z,14.48
2022-11-28T02:18:07.114Z,14.50
2022-11-28T02:23:19.434Z,14.23
2022-11-28T02:25:58.233Z,12.98
2022-11-28T02:28:29.738Z,15.05
2022-11-28T02:31:05.642Z,12.32
2022-11-28T02:33:37.305Z,15.75
2022-11-28T02:36:21.029Z,12.10
2022-11-28T02:39:15.030Z,14.32
2022-11-28T02:41:57.806Z,15.85
2022-11-28T02:44:33.543Z,21.85
2022-11-28T02:47:07.618Z,17.05
2022-11-28T02:49:38.441Z,18.40
2022-11-28T02:52:18.053Z,15.65
2022-11-28T02:54:46.585Z,20.95
2022-11-28T02:57:13.665Z,19.25
2022-11-28T02:59:43.579Z,22.05
2022-11-28T03:02:30.477Z,22.05
2022-11-28T03:05:16.574Z,20.23
2022-11-28T03:08:08.445Z,25.52
2022-11-28T03:11:02.487Z,33.60
2022-11-28T03:13:41.443Z,18.58
2022-11-28T03:16:14.923Z,34.33
2022-11-28T03:18:49.523Z,20.80
2022-11-28T03:21:51.165Z,23.25
2022-11-28T03:24:36.431Z,22.05
2022-11-28T03:27:18.319Z,24.10
2022-11-28T03:29:57.910Z,16.50
2022-11-28T03:32:37.837Z,22.30
2022-11-28T03:35:10.716Z,16.77
2022-11-28T03:37:52.361Z,15.52
2022-11-28T03:40:25.020Z,18.98
2022-11-28T03:43:00.555Z,15.32
2022-11-28T03:45:32.647Z,15.90
2022-11-28T03:48:05.020Z,18.77
2022-11-28T03:50:38.013Z,17.20
2022-11-28T03:53:11.377Z,16.63
2022-11-28T03:55:44.018Z,16.85
2022-11-28T03:58:19.852Z,17.45
2022-11-28T04:00:58.659Z,14.45
2022-11-28T04:04:15.134Z,30.08
2022-11-28T04:06:48.095Z,17.40
2022-11-28T04:09:19.082Z,17.27
2022-11-28T04:11:54.437Z,43.13
2022-11-28T04:14:29.614Z,16.10
2022-11-28T04:17:19.703Z,29.67
2022-11-28T04:19:59.355Z,20.30
2022-11-28T04:22:33.252Z,30.75
2022-11-28T04:25:08.129Z,27.90
2022-11-28T04:27:39.751Z,15.15
2022-11-28T04:30:10.113Z,24.73
2022-11-28T04:32:42.338Z,19.20
2022-11-28T04:35:13.772Z,19.58
2022-11-28T04:40:11.888Z,19.15
2022-11-28T04:43:04.123Z,18.08
2022-11-28T04:45:37.996Z,16.30
2022-11-28T04:48:05.788Z,14.45
2022-11-28T04:50:43.622Z,27.65
2022-11-28T04:53:37.417Z,15.00
2022-11-28T04:56:11.908Z,15.25
2022-11-28T04:58:43.941Z,14.40
2022-11-28T05:01:16.880Z,13.05
2022-11-28T05:03:44.217Z,21.73
2022-11-28T05:06:11.483Z,24.17
2022-11-28T05:08:38.542Z,40.13
2022-11-28T05:11:05.686Z,15.27
2022-11-28T05:13:32.678Z,14.27
2022-11-28T05:16:01.677Z,13.25
2022-11-28T05:18:28.742Z,14.90
2022-11-28T05:20:58.092Z,64.30
2022-11-28T05:23:25.071Z,78.07
2022-11-28T05:25:52.046Z,10.65
2022-11-28T05:28:19.094Z,17.15
2022-11-28T05:30:55.950Z,14.90
2022-11-28T05:33:22.920Z,48.85
2022-11-28T05:35:49.925Z,26.45
2022-11-28T05:38:16.966Z,37.42
2022-11-28T05:40:44.544Z,55.97
2022-11-28T05:43:12.216Z,20.92
2022-11-28T05:45:44.020Z,11.45
2022-11-28T05:48:11.661Z,13.90
2022-11-28T05:50:42.809Z,12.77
2022-11-28T05:53:10.843Z,29.92
2022-11-28T05:55:39.816Z,13.98
2022-11-28T05:58:06.861Z,24.88
2022-11-28T06:00:33.852Z,23.25
2022-11-28T06:03:01.650Z,28.73
2022-11-28T06:05:42.240Z,21.55
2022-11-28T06:08:12.602Z,14.02
2022-11-28T06:10:39.861Z,15.52
2022-11-28T06:13:06.954Z,25.23
2022-11-28T06:15:37.940Z,22.13
2022-11-28T06:18:05.961Z,23.85
2022-11-28T06:20:35.138Z,14.10
2022-11-28T06:23:02.146Z,21.52
2022-11-28T06:25:29.280Z,20.98
2022-11-28T06:27:56.287Z,16.75
2022-11-28T06:30:23.249Z,20.48
2022-11-28T06:32:50.223Z,16.08
2022-11-28T06:35:17.318Z,31.38
2022-11-28T06:37:44.421Z,18.85
2022-11-28T06:40:11.673Z,16.50
2022-11-28T06:42:38.862Z,21.65
2022-11-28T06:45:06.843Z,87.03
2022-11-28T06:47:33.909Z,43.58
2022-11-28T06:50:01.073Z,20.70
2022-11-28T06:52:28.997Z,22.15
2022-11-28T06:54:55.986Z,25.70
2022-11-28T06:57:23.098Z,20.10
2022-11-28T06:59:50.743Z,22.63
2022-11-28T07:02:17.917Z,18.67
2022-11-28T07:04:45.004Z,24.65
2022-11-28T07:07:16.317Z,19.17
2022-11-28T07:09:44.247Z,25.23
2022-11-28T07:12:11.505Z,18.48
2022-11-28T07:14:38.549Z,18.30
2022-11-28T07:17:05.892Z,22.85
2022-11-28T07:19:33.063Z,54.15
2022-11-28T07:22:00.302Z,42.80
2022-11-28T07:24:27.621Z,18.90
2022-11-28T07:26:54.699Z,16.60
2022-11-28T07:29:22.907Z,15.00
2022-11-28T07:31:50.660Z,13.10
2022-11-28T07:34:17.692Z,15.70
2022-11-28T07:36:44.692Z,14.27
2022-11-28T07:39:16.106Z,12.82
2022-11-28T07:44:11.409Z,10.95
2022-11-28T07:46:39.091Z,11.75
2022-11-28T07:49:06.125Z,10.55
2022-11-28T07:51:34.247Z,13.68
2022-11-28T07:54:02.394Z,9.40
2022-11-28T07:56:57.305Z,9.88
2022-11-28T07:59:18.706Z,11.15
2022-11-28T08:01:45.952Z,10.00
2022-11-28T08:04:13.089Z,10.13
2022-11-28T08:06:41.918Z,13.82
2022-11-28T08:09:09.116Z,15.68
2022-11-28T08:11:36.338Z,13.35
2022-11-28T08:14:03.846Z,23.05
2022-11-28T08:16:31.649Z,27.02
2022-11-28T08:19:02.650Z,19.45
2022-11-28T08:21:32.204Z,81.43
2022-11-28T08:24:01.148Z,18.50
2022-11-28T08:26:30.952Z,18.02
2022-11-28T08:28:59.106Z,22.40
2022-11-28T08:31:31.653Z,52.10
2022-11-28T08:34:01.095Z,18.58
2022-11-28T08:36:29.292Z,20.02
2022-11-28T08:39:09.877Z,19.95
2022-11-28T08:41:44.095Z,16.27
2022-11-28T08:44:11.143Z,17.17
2022-11-28T08:46:38.146Z,17.50
2022-11-28T08:49:05.150Z,16.40
2022-11-28T08:51:32.420Z,19.35
2022-11-28T08:54:00.044Z,19.58
2022-11-28T08:56:28.127Z,17.73
2022-11-28T08:58:55.617Z,16.67
2022-11-28T09:01:26.888Z,14.82
2022-11-28T09:03:55.537Z,17.67
2022-11-28T09:06:23.533Z,18.83
2022-11-28T09:08:51.532Z,17.45
2022-11-28T09:11:20.622Z,18.30
2022-11-28T09:13:48.222Z,14.77
2022-11-28T09:16:15.898Z,22.55
2022-11-28T09:18:43.070Z,21.33
2022-11-28T09:21:13.131Z,23.77
2022-11-28T09:23:42.246Z,18.92
2022-11-28T09:26:29.948Z,17.45
2022-11-28T09:28:57.054Z,20.10
2022-11-28T09:31:24.213Z,20.52
2022-11-28T09:33:51.674Z,21.02
2022-11-28T09:36:20.825Z,20.20
2022-11-28T09:38:47.934Z,24.05
2022-11-28T09:41:35.955Z,25.13
2022-11-28T09:44:22.022Z,22.23
2022-11-28T09:46:52.624Z,25.02
2022-11-28T09:49:49.184Z,21.60
2022-11-28T09:52:42.073Z,22.33
2022-11-28T09:55:36.105Z,29.52
2022-11-28T09:58:15.690Z,26.63
2022-11-28T10:00:59.315Z,24.02
2022-11-28T10:03:48.584Z,29.25
2022-11-28T10:06:26.048Z,27.52
2022-11-28T10:09:02.157Z,30.35
2022-11-28T10:11:53.572Z,27.55
2022-11-28T10:14:43.648Z,23.98
2022-11-28T10:17:24.562Z,25.40
2022-11-28T10:20:04.611Z,27.77
2022-11-28T10:22:45.826Z,24.70
2022-11-28T10:25:28.552Z,24.42
2022-11-28T10:27:57.313Z,24.42
2022-11-28T10:30:27.313Z,21.38
2022-11-28T10:33:25.199Z,20.73
2022-11-28T10:36:00.671Z,19.77
2022-11-28T10:38:31.514Z,17.17
2022-11-28T10:41:01.986Z,15.63
2022-11-28T10:43:35.341Z,14.68
2022-11-28T10:46:31.488Z,14.88
2022-11-28T10:49:17.131Z,14.80
2022-11-28T10:52:08.764Z,19.33
2022-11-28T10:54:50.792Z,18.05
2022-11-28T10:57:24.119Z,17.88
2022-11-28T11:00:26.480Z,20.92
2022-11-28T11:03:00.408Z,21.05
2022-11-28T11:05:30.219Z,23.58
2022-11-28T11:08:16.052Z,22.00
2022-11-28T11:10:55.654Z,27.92
2022-11-28T11:13:34.474Z,24.08
2022-11-28T11:16:08.061Z,20.23
2022-11-28T11:18:38.075Z,21.63
2022-11-28T11:21:19.415Z,20.73
2022-11-28T11:23:47.923Z,19.75
2022-11-28T11:26:36.517Z,18.00
2022-11-28T11:29:05.565Z,19.15
2022-11-28T11:31:42.533Z,15.82
2022-11-28T11:34:21.338Z,22.65
2022-11-28T11:36:49.224Z,16.75
2022-11-28T11:39:25.732Z,17.27
2022-11-28T11:42:19.539Z,15.88
2022-11-28T11:44:46.539Z,17.00
2022-11-28T11:47:13.840Z,14.52
2022-11-28T11:49:50.805Z,16.00
2022-11-28T11:52:26.162Z,11.30
2022-11-28T11:54:58.255Z,12.50
2022-11-28T11:57:37.892Z,12.52
2022-11-28T12:00:19.844Z,13.73
2022-11-28T12:03:04.041Z,15.30
2022-11-28T12:08:54.545Z,13.48
2022-11-28T12:11:26.431Z,12.55
2022-11-28T12:13:54.081Z,11.52
2022-11-28T12:16:36.321Z,14.68
2022-11-28T12:19:16.168Z,14.02
2022-11-28T12:22:09.400Z,16.63
2022-11-28T12:24:54.603Z,15.77
2022-11-28T12:27:31.557Z,12.48
2022-11-28T12:30:16.324Z,11.32
2022-11-28T12:33:18.597Z,14.52
2022-11-28T12:36:14.099Z,19.67
2022-11-28T12:39:03.299Z,20.77
2022-11-28T12:42:09.327Z,13.70
2022-11-28T12:44:39.415Z,15.00
2022-11-28T12:47:35.304Z,15.23
2022-11-28T12:50:11.618Z,13.40
2022-11-28T12:52:53.905Z,13.60
2022-11-28T12:55:21.031Z,16.15
2022-11-28T12:58:08.229Z,14.77
2022-11-28T13:00:49.566Z,12.00
2022-11-28T13:03:28.764Z,15.90
2022-11-28T13:06:07.731Z,16.08
2022-11-28T13:08:48.913Z,17.33
2022-11-28T13:14:01.504Z,16.13
2022-11-28T13:16:51.588Z,18.52
2022-11-28T13:19:40.248Z,13.88
2022-11-28T13:22:23.766Z,22.08
2022-11-28T13:25:08.078Z,21.95
2022-11-28T13:27:38.164Z,20.45
2022-11-28T13:30:23.708Z,18.45
2022-11-28T13:32:53.926Z,18.40
2022-11-28T13:35:21.682Z,20.95
2022-11-28T13:40:52.717Z,27.65
2022-11-28T13:43:53.772Z,32.97
2022-11-28T13:49:20.955Z,27.40
2022-11-28T13:51:48.801Z,19.55
2022-11-28T13:54:21.636Z,20.23
2022-11-28T13:57:09.688Z,21.38
2022-11-28T13:59:37.954Z,19.58
2022-11-28T14:02:41.893Z,23.35
2022-11-28T14:05:26.545Z,18.88
2022-11-28T14:07:56.073Z,23.27
2022-11-28T14:10:32.341Z,19.77
2022-11-28T14:13:09.791Z,20.42
2022-11-28T14:16:03.655Z,19.92
2022-11-28T14:18:58.239Z,36.50
2022-11-28T14:21:28.531Z,24.25
2022-11-28T14:23:58.534Z,21.23
2022-11-28T14:26:34.210Z,25.40
2022-11-28T14:29:03.203Z,18.77
2022-11-28T14:31:37.336Z,19.52
2022-11-28T14:34:31.386Z,22.48
2022-11-28T14:37:21.807Z,23.17
2022-11-28T14:39:51.495Z,35.28
2022-11-28T14:42:59.122Z,43.20
2022-11-28T14:45:33.583Z,57.47
2022-11-28T14:48:31.210Z,42.20
2022-11-28T14:51:02.185Z,58.95
2022-11-28T14:53:36.576Z,31.30
2022-11-28T14:56:16.220Z,23.88
2022-11-28T14:58:51.467Z,41.85
2022-11-28T15:01:35.758Z,26.30
2022-11-28T15:04:34.937Z,23.08
2022-11-28T15:07:05.200Z,25.65
2022-11-28T15:09:50.782Z,38.70
2022-11-28T15:12:37.585Z,31.73
2022-11-28T15:15:08.153Z,24.95
2022-11-28T15:17:35.551Z,25.87
2022-11-28T15:20:38.985Z,27.98
2022-11-28T15:23:06.134Z,24.75
2022-11-28T15:25:37.498Z,25.58
2022-11-28T15:28:20.378Z,22.95
2022-11-28T15:30:52.150Z,26.23
2022-11-28T15:33:21.139Z,22.27
2022-11-28T15:36:02.227Z,23.95
2022-11-28T15:38:31.252Z,22.25
2022-11-28T15:41:00.070Z,22.90
2022-11-28T15:43:27.760Z,20.13
2022-11-28T15:46:01.181Z,19.45
2022-11-28T15:48:40.225Z,21.85
2022-11-28T15:51:08.699Z,20.20
2022-11-28T15:53:42.304Z,23.73
2022-11-28T15:56:14.670Z,17.90
2022-11-28T15:58:43.809Z,19.40
2022-11-28T16:01:21.143Z,20.25
2022-11-28T16:03:54.613Z,21.55
2022-11-28T16:06:25.218Z,21.67
2022-11-28T16:09:06.259Z,23.25
2022-11-28T16:11:35.805Z,20.83
2022-11-28T16:14:09.326Z,20.83
2022-11-28T16:16:38.510Z,24.92
2022-11-28T16:19:09.045Z,21.83
2022-11-28T16:21:57.751Z,24.70
2022-11-28T16:24:27.437Z,21.00
2022-11-28T16:27:00.358Z,19.55
2022-11-28T16:29:36.440Z,21.48
2022-11-28T16:32:38.282Z,23.30
2022-11-28T16:35:07.366Z,20.40
2022-11-28T16:37:35.072Z,25.75
2022-11-28T16:40:23.597Z,26.35
2022-11-28T16:42:56.183Z,27.40
2022-11-28T16:45:29.872Z,29.52
2022-11-28T16:48:12.976Z,29.73
2022-11-28T16:51:10.383Z,30.23
2022-11-28T16:53:50.826Z,24.08
2022-11-28T16:56:30.198Z,29.48
2022-11-28T16:59:19.573Z,27.85
2022-11-28T17:01:49.848Z,27.30
2022-11-28T17:04:28.799Z,30.30
2022-11-28T17:07:06.189Z,34.45
2022-11-28T17:09:34.037Z,29.05
2022-11-28T17:12:15.511Z,28.48
2022-11-28T17:14:44.530Z,34.75
2022-11-28T17:17:16.379Z,30.17
2022-11-28T17:19:44.968Z,27.48
2022-11-28T17:22:17.139Z,26.85
2022-11-28T17:24:46.603Z,29.05
2022-11-28T17:27:15.112Z,29.17
2022-11-28T17:29:48.692Z,26.45
2022-11-28T17:32:16.459Z,28.90
2022-11-28T17:34:46.462Z,26.90
2022-11-28T17:37:14.312Z,32.83
2022-11-28T17:40:03.281Z,26.98
2022-11-28T17:42:31.877Z,28.42
2022-11-28T17:45:00.300Z,27.48
2022-11-28T17:47:28.197Z,27.85
2022-11-28T17:49:56.531Z,26.20
2022-11-28T17:52:30.695Z,26.60
2022-11-28T17:55:06.963Z,26.13
2022-11-28T17:57:36.193Z,27.15
2022-11-28T18:00:07.147Z,26.88
2022-11-28T18:02:42.330Z,24.40
2022-11-28T18:05:10.190Z,27.10
2022-11-28T18:07:40.994Z,28.00
2022-11-28T18:10:12.379Z,27.10
2022-11-28T18:12:40.112Z,27.80
2022-11-28T18:15:10.956Z,29.13
2022-11-28T18:17:38.945Z,31.20
2022-11-28T18:20:07.442Z,30.48
2022-11-28T18:22:35.479Z,27.55
2022-11-28T18:25:06.832Z,29.70
2022-11-28T18:27:35.438Z,39.08
2022-11-28T18:30:03.814Z,42.35
2022-11-28T18:32:32.861Z,37.05
2022-11-28T18:35:00.436Z,39.88
2022-11-28T18:37:28.613Z,38.88
2022-11-28T18:39:56.134Z,42.78
2022-11-28T18:42:24.303Z,44.13
2022-11-28T18:44:52.440Z,45.78
2022-11-28T18:47:20.315Z,48.63
2022-11-28T18:49:48.928Z,45.97
2022-11-28T18:52:17.877Z,56.33
2022-11-28T18:54:46.975Z,49.05
2022-11-28T18:57:15.236Z,49.45
2022-11-28T18:59:51.383Z,48.42
2022-11-28T19:02:22.983Z,51.33
2022-11-28T19:04:51.191Z,50.75
2022-11-28T19:07:19.438Z,49.42
2022-11-28T19:09:48.197Z,52.33
2022-11-28T19:12:20.280Z,56.20
2022-11-28T19:14:47.670Z,52.80
2022-11-28T19:17:16.803Z,56.83
2022-11-28T19:19:46.188Z,55.75
2022-11-28T19:22:14.450Z,54.10
2022-11-28T19:24:42.542Z,59.30
2022-11-28T19:27:14.293Z,58.55
2022-11-28T19:29:47.279Z,54.20
2022-11-28T19:32:17.096Z,56.47
2022-11-28T19:34:45.317Z,57.28
2022-11-28T19:37:16.387Z,53.13
2022-11-28T19:39:44.542Z,54.00
2022-11-28T19:42:13.403Z,56.92
2022-11-28T19:44:41.322Z,55.10
2022-11-28T19:47:12.165Z,59.90
2022-11-28T19:49:42.544Z,56.67
2022-11-28T19:52:10.827Z,65.70
2022-11-28T19:54:38.790Z,58.90
2022-11-28T19:57:11.031Z,62.33
2022-11-28T19:59:38.820Z,60.47
2022-11-28T20:02:08.281Z,68.57
2022-11-28T20:04:36.684Z,61.97
2022-11-28T20:07:11.083Z,58.45
2022-11-28T20:09:39.315Z,58.63
2022-11-28T20:12:07.592Z,63.90
2022-11-28T20:14:35.967Z,66.05
2022-11-28T20:17:05.052Z,68.70
2022-11-28T20:19:34.109Z,70.38
2022-11-28T20:22:02.224Z,67.57
2022-11-28T20:24:30.780Z,72.60
2022-11-28T20:26:59.950Z,65.82
2022-11-28T20:29:29.615Z,75.15
2022-11-28T20:31:58.963Z,66.88
2022-11-28T20:34:27.618Z,71.63
2022-11-28T20:36:55.232Z,70.90
2022-11-28T20:39:25.114Z,72.03
2022-11-28T20:41:54.220Z,78.10
2022-11-28T20:44:23.820Z,69.13
2022-11-28T20:46:51.992Z,68.38
2022-11-28T20:49:19.813Z,69.22
2022-11-28T20:51:47.689Z,65.18
2022-11-28T20:54:17.855Z,69.68
2022-11-28T20:57:19.202Z,68.28
2022-11-28T20:59:34.157Z,74.45
2022-11-28T21:02:01.796Z,69.03
2022-11-28T21:04:29.774Z,62.20
2022-11-28T21:06:57.569Z,76.28
2022-11-28T21:09:24.932Z,69.63
2022-11-28T21:12:00.766Z,78.03
2022-11-28T21:14:29.472Z,79.05
2022-11-28T21:16:58.569Z,85.75
2022-11-28T21:19:26.454Z,83.20
2022-11-28T21:21:53.983Z,88.43
2022-11-28T21:24:21.661Z,85.13
2022-11-28T21:26:54.001Z,73.25
2022-11-28T21:29:23.242Z,79.88
2022-11-28T21:31:50.889Z,81.05
2022-11-28T21:34:19.407Z,80.72
2022-11-28T21:36:47.387Z,75.68
2022-11-28T21:39:17.268Z,83.43
2022-11-28T21:41:44.758Z,78.85
2022-11-28T21:44:11.760Z,79.20
2022-11-28T21:46:38.899Z,69.10
2022-11-28T21:49:13.817Z,78.55
2022-11-28T21:51:41.137Z,84.95
2022-11-28T21:54:12.473Z,76.68
2022-11-28T21:56:40.095Z,82.70
2022-11-28T21:59:07.417Z,74.57
2022-11-28T22:01:34.706Z,73.13
2022-11-28T22:04:03.147Z,68.15
2022-11-28T22:06:31.885Z,82.60
2022-11-28T22:09:03.268Z,79.78
2022-11-28T22:11:34.271Z,86.43
2022-11-28T22:14:01.601Z,72.10
2022-11-28T22:16:29.688Z,82.00
2022-11-28T22:18:59.940Z,76.88
2022-11-28T22:24:14.509Z,77.75
2022-11-28T22:26:41.562Z,77.97
2022-11-28T22:29:08.744Z,73.22
2022-11-28T22:31:37.120Z,81.15
2022-11-28T22:34:04.655Z,80.50
2022-11-28T22:36:33.560Z,82.18
2022-11-28T22:39:01.114Z,76.72
2022-11-28T22:41:29.748Z,81.57
2022-11-28T22:44:01.025Z,80.30
2022-11-28T22:46:30.625Z,71.38
2022-11-28T22:49:00.461Z,86.20
2022-11-28T22:51:28.940Z,75.35
2022-11-28T22:53:57.888Z,77.07
2022-11-28T22:56:27.752Z,72.55
2022-11-28T22:58:54.837Z,73.82
2022-11-28T23:01:29.268Z,79.40
2022-11-28T23:03:57.268Z,68.38
2022-11-28T23:06:31.047Z,86.78
2022-11-28T23:08:59.737Z,79.82
2022-11-28T23:11:30.432Z,76.65
2022-11-28T23:13:59.352Z,76.53
2022-11-28T23:16:33.022Z,78.82
2022-11-28T23:19:03.847Z,110.28
2022-11-28T23:21:35.860Z,85.70
2022-11-28T23:24:04.749Z,79.75
2022-11-28T23:26:32.924Z,80.13
2022-11-28T23:29:01.495Z,90.55
2022-11-28T23:31:31.562Z,86.95
2022-11-28T23:34:00.123Z,89.22
2022-11-28T23:36:38.447Z,79.97
2022-11-28T23:39:17.582Z,81.72
2022-11-28T23:41:45.166Z,84.25
2022-11-28T23:44:13.366Z,80.78
2022-11-28T23:46:41.043Z,83.68
2022-11-28T23:49:08.628Z,93.93
2022-11-28T23:51:36.403Z,87.88
2022-11-28T23:54:03.731Z,83.38
2022-11-28T23:56:34.225Z,94.45
2022-11-28T23:59:03.427Z,82.77
